Time;durP1;ratioP1;P1;durP2;ratioP2;P2;SDS_P1;SDS_P2;PMS_P1;PMS_P2;Temp;Humidity;BMP_temperature;BMP_pressure;BME280_temperature;BME280_humidity;BME280_pressure;Samples;Min_cycle;Max_cycle;Signal;HPM_P1;HPM_P2
2022/09/30 00:01:46;;;;;;;2.40;1.40;;;;;;;16.00;92.82;99467.59;5109114;28;20035;-70
2022/09/30 00:04:19;;;;;;;3.53;1.50;;;;;;;16.05;93.02;99472.06;5115415;28;20048;-70
2022/09/30 00:06:48;;;;;;;3.70;1.75;;;;;;;15.95;93.29;99492.66;5111764;28;20047;-70
2022/09/30 00:09:16;;;;;;;4.32;1.85;;;;;;;16.03;92.63;99490.94;5110628;28;20044;-70
2022/09/30 00:11:45;;;;;;;2.95;1.90;;;;;;;16.06;92.68;99487.47;5108492;28;20067;-70
2022/09/30 00:14:17;;;;;;;3.35;2.05;;;;;;;16.08;93.44;99480.47;5108708;28;20044;-70
2022/09/30 00:16:45;;;;;;;4.82;2.35;;;;;;;16.33;91.62;99488.75;5103851;28;20477;-70
2022/09/30 00:19:14;;;;;;;4.18;2.03;;;;;;;16.33;90.84;99491.50;5114224;28;20039;-70
2022/09/30 00:21:42;;;;;;;2.58;2.00;;;;;;;16.17;91.26;99487.84;5106990;28;20059;-70
2022/09/30 00:24:10;;;;;;;2.67;1.88;;;;;;;16.31;91.12;99496.56;5109440;28;20047;-70
2022/09/30 00:26:38;;;;;;;5.18;1.77;;;;;;;16.37;90.49;99509.00;5114737;28;20051;-70
2022/09/30 00:29:06;;;;;;;2.30;2.10;;;;;;;16.29;90.80;99507.16;5105656;28;20050;-70
2022/09/30 00:31:35;;;;;;;2.05;1.90;;;;;;;16.27;89.97;99503.94;5113410;28;20040;-70
2022/09/30 00:34:06;;;;;;;2.65;1.80;;;;;;;16.15;92.00;99513.03;5103350;28;20486;-70
2022/09/30 00:36:42;;;;;;;2.47;1.50;;;;;;;16.32;90.17;99511.97;5113360;28;20047;-70
2022/09/30 00:39:15;;;;;;;2.70;1.85;;;;;;;16.35;90.81;99521.53;5110134;28;20052;-70
2022/09/30 00:41:44;;;;;;;3.72;2.13;;;;;;;16.25;89.98;99529.13;5103017;27;20492;-70
2022/09/30 00:44:55;;;;;;;3.08;1.98;;;;;;;16.17;90.38;99526.47;5095947;28;20483;-70
2022/09/30 00:47:39;;;;;;;2.03;1.83;;;;;;;16.29;91.20;99523.72;5096942;28;20044;-70
2022/09/30 00:50:44;;;;;;;1.50;1.35;;;;;;;16.39;89.64;99522.47;5098710;28;20043;-70
2022/09/30 00:53:24;;;;;;;4.55;1.85;;;;;;;16.53;88.85;99533.94;5098239;28;20048;-70
2022/09/30 00:56:01;;;;;;;2.65;1.80;;;;;;;16.68;88.10;99528.88;5109184;28;20810;-70
2022/09/30 00:58:33;;;;;;;4.25;1.55;;;;;;;16.81;86.73;99543.47;5114013;28;20486;-70
2022/09/30 01:01:02;;;;;;;2.47;2.13;;;;;;;16.82;87.32;99542.34;5104778;28;20047;-70
2022/09/30 01:03:37;;;;;;;2.63;1.92;;;;;;;16.82;87.55;99545.09;5098837;28;20040;-70
2022/09/30 01:06:05;;;;;;;1.52;1.30;;;;;;;16.73;88.44;99552.69;5113061;28;20035;-70
2022/09/30 01:08:36;;;;;;;1.92;1.67;;;;;;;16.72;89.57;99551.09;5109960;28;20063;-70
2022/09/30 01:11:04;;;;;;;2.00;1.80;;;;;;;16.65;90.46;99555.25;5112558;28;20390;-70
2022/09/30 01:13:38;;;;;;;4.22;1.83;;;;;;;16.51;90.40;99569.41;5109094;28;20066;-70
2022/09/30 01:16:14;;;;;;;1.55;1.45;;;;;;;16.49;90.84;99570.88;5103760;28;20051;-70
2022/09/30 01:19:02;;;;;;;2.60;1.45;;;;;;;16.52;91.00;99582.03;5111788;28;20496;-70
2022/09/30 01:21:57;;;;;;;2.80;1.70;;;;;;;16.48;90.68;99581.13;5096046;28;20040;-69
2022/09/30 01:24:43;;;;;;;3.80;1.92;;;;;;;16.59;90.60;99581.47;5110539;28;20048;-70
2022/09/30 01:27:14;;;;;;;2.00;1.65;;;;;;;16.57;90.50;99586.53;5113584;28;20048;-70
2022/09/30 01:30:08;;;;;;;3.53;1.83;;;;;;;16.51;91.23;99585.16;5112186;28;20048;-70
2022/09/30 01:33:07;;;;;;;4.05;1.90;;;;;;;16.57;91.84;99594.03;5101140;28;20410;-70
2022/09/30 01:35:54;;;;;;;2.85;1.52;;;;;;;16.51;93.28;99590.66;5096605;28;20044;-71
2022/09/30 01:38:28;;;;;;;3.63;1.77;;;;;;;16.42;95.85;99590.00;5101913;27;20047;-70
2022/09/30 01:40:58;;;;;;;4.27;1.83;;;;;;;16.27;96.08;99592.25;5101148;28;20040;-70
2022/09/30 01:43:38;;;;;;;3.58;1.70;;;;;;;16.20;98.25;99595.59;5101971;28;20039;-70
2022/09/30 01:46:36;;;;;;;3.25;1.63;;;;;;;16.19;98.60;99595.94;5098863;28;20044;-70
2022/09/30 01:49:09;;;;;;;2.92;1.83;;;;;;;16.20;98.20;99598.38;5101769;28;20042;-70
2022/09/30 01:52:03;;;;;;;3.45;1.35;;;;;;;16.16;98.38;99593.84;5111868;28;20054;-70
2022/09/30 01:54:51;;;;;;;2.08;1.40;;;;;;;16.18;98.12;99602.63;5106200;28;20160;-70
2022/09/30 01:58:04;;;;;;;2.47;1.45;;;;;;;16.35;95.60;99616.22;5100551;28;20046;-70
2022/09/30 02:00:36;;;;;;;1.60;1.30;;;;;;;16.33;97.84;99601.94;5080103;28;20051;-70
2022/09/30 02:03:10;;;;;;;2.83;1.48;;;;;;;16.11;97.73;99600.41;5110848;28;20044;-70
2022/09/30 02:05:54;;;;;;;1.20;1.10;;;;;;;16.14;97.31;99604.44;5093745;28;20047;-70
2022/09/30 02:08:43;;;;;;;2.92;1.00;;;;;;;16.03;96.90;99613.13;5107373;28;20047;-70
2022/09/30 02:11:17;;;;;;;2.90;0.80;;;;;;;15.96;96.48;99604.63;5096128;28;20051;-70
2022/09/30 02:13:52;;;;;;;0.60;0.57;;;;;;;16.04;95.69;99612.00;5100299;28;20043;-70
2022/09/30 02:16:30;;;;;;;0.93;0.80;;;;;;;15.94;96.12;99618.75;5104215;28;20052;-70
2022/09/30 02:19:17;;;;;;;1.55;0.90;;;;;;;15.94;95.50;99602.19;5101254;28;20040;-70
2022/09/30 02:21:54;;;;;;;3.63;0.70;;;;;;;15.97;95.02;99596.00;5110642;28;20054;-70
2022/09/30 02:24:25;;;;;;;0.47;0.47;;;;;;;15.84;96.01;99597.09;5100304;28;20509;-70
2022/09/30 02:26:57;;;;;;;2.60;0.82;;;;;;;15.88;96.58;99599.97;5110588;28;20056;-70
2022/09/30 02:29:29;;;;;;;2.67;0.90;;;;;;;15.91;95.89;99607.56;5106923;28;20040;-70
2022/09/30 02:32:03;;;;;;;0.85;0.70;;;;;;;15.84;95.67;99608.13;5107807;28;20533;-70
2022/09/30 02:34:36;;;;;;;0.60;0.60;;;;;;;15.72;97.31;99611.63;5107118;28;20044;-70
2022/09/30 02:37:20;;;;;;;1.55;1.15;;;;;;;15.53;97.79;99604.66;5109695;28;20490;-70
2022/09/30 02:40:12;;;;;;;0.83;0.70;;;;;;;15.44;98.23;99607.50;5109635;28;20102;-70
2022/09/30 02:42:44;;;;;;;1.08;0.68;;;;;;;15.39;99.25;99609.66;5110756;28;20476;-70
2022/09/30 02:45:16;;;;;;;0.95;0.80;;;;;;;15.30;99.45;99607.75;5110951;28;20044;-70
2022/09/30 02:48:11;;;;;;;2.20;0.80;;;;;;;15.22;100.00;99594.88;5104424;28;20133;-70
2022/09/30 02:50:57;;;;;;;0.63;0.63;;;;;;;15.20;100.00;99613.66;5102692;28;20051;-70
2022/09/30 02:53:38;;;;;;;0.60;0.60;;;;;;;15.11;100.00;99605.44;5104673;27;20066;-70
2022/09/30 02:56:12;;;;;;;0.90;0.70;;;;;;;15.10;100.00;99605.81;5105088;28;20121;-70
2022/09/30 02:58:42;;;;;;;0.70;0.57;;;;;;;15.03;100.00;99620.94;5106672;28;20036;-70
2022/09/30 03:01:13;;;;;;;0.80;0.80;;;;;;;14.98;100.00;99623.06;5111861;28;20039;-70
2022/09/30 03:03:54;;;;;;;0.77;0.77;;;;;;;15.04;100.00;99621.72;5105662;28;20044;-71
2022/09/30 03:06:23;;;;;;;1.08;0.70;;;;;;;14.97;100.00;99613.19;5104159;28;20479;-70
2022/09/30 03:08:51;;;;;;;1.50;1.10;;;;;;;14.99;100.00;99631.00;5109156;28;20532;-70
2022/09/30 03:11:22;;;;;;;2.33;0.90;;;;;;;15.00;100.00;99632.59;5111764;28;20791;-70
2022/09/30 03:13:56;;;;;;;1.98;0.75;;;;;;;14.96;100.00;99641.88;5095359;28;20048;-70
2022/09/30 03:16:59;;;;;;;0.50;0.50;;;;;;;14.94;100.00;99646.88;5102504;28;20044;-70
2022/09/30 03:19:46;;;;;;;1.35;1.23;;;;;;;14.89;100.00;99645.13;5107359;28;20114;-70
2022/09/30 03:22:32;;;;;;;1.02;0.77;;;;;;;14.90;100.00;99644.00;5106881;28;20059;-70
2022/09/30 03:25:09;;;;;;;0.73;0.73;;;;;;;14.93;100.00;99643.34;5104890;28;20502;-70
2022/09/30 03:28:15;;;;;;;1.20;0.82;;;;;;;14.97;100.00;99637.97;5105042;28;20042;-70
2022/09/30 03:30:56;;;;;;;1.88;1.10;;;;;;;14.94;100.00;99650.47;5099148;28;20040;-70
2022/09/30 03:33:52;;;;;;;1.05;1.05;;;;;;;15.08;100.00;99652.16;5099491;28;20048;-70
2022/09/30 03:36:23;;;;;;;1.30;1.00;;;;;;;14.98;100.00;99656.13;5090309;28;20044;-70
2022/09/30 03:39:16;;;;;;;1.90;1.25;;;;;;;14.93;100.00;99654.38;5108419;28;20059;-70
2022/09/30 03:42:00;;;;;;;1.35;0.90;;;;;;;15.01;100.00;99653.50;5098671;28;20040;-70
2022/09/30 03:44:38;;;;;;;1.08;0.98;;;;;;;14.96;100.00;99650.94;5105071;28;20043;-70
2022/09/30 03:47:10;;;;;;;1.42;1.00;;;;;;;15.01;100.00;99661.75;5101996;28;20043;-70
2022/09/30 03:49:44;;;;;;;1.48;1.20;;;;;;;15.01;100.00;99672.00;5102612;28;20044;-70
2022/09/30 03:52:13;;;;;;;1.08;0.98;;;;;;;14.96;100.00;99675.72;5091889;28;20411;-71
2022/09/30 03:55:10;;;;;;;2.40;0.90;;;;;;;14.99;100.00;99682.50;5090749;28;20039;-70
2022/09/30 03:57:38;;;;;;;1.63;1.10;;;;;;;14.75;100.00;99697.69;5100590;28;20052;-70
2022/09/30 04:00:07;;;;;;;1.13;1.08;;;;;;;14.69;100.00;99693.47;5106595;28;20050;-70
2022/09/30 04:02:36;;;;;;;1.98;0.93;;;;;;;14.78;100.00;99706.09;5111244;28;20063;-70
2022/09/30 04:05:05;;;;;;;4.47;1.20;;;;;;;14.90;100.00;99710.09;5111081;28;20049;-70
2022/09/30 04:07:33;;;;;;;2.28;1.20;;;;;;;15.15;100.00;99713.09;5107338;28;20036;-70
2022/09/30 04:10:02;;;;;;;1.65;1.45;;;;;;;14.99;100.00;99705.38;5102580;28;20509;-70
2022/09/30 04:12:30;;;;;;;1.13;1.00;;;;;;;15.18;100.00;99712.41;5109231;28;20051;-70
2022/09/30 04:14:58;;;;;;;0.73;0.73;;;;;;;15.31;100.00;99707.81;5107365;28;20054;-70
2022/09/30 04:17:26;;;;;;;0.98;0.75;;;;;;;15.33;100.00;99700.00;5100469;28;20390;-70
2022/09/30 04:19:54;;;;;;;1.63;1.13;;;;;;;15.31;100.00;99705.06;5096863;28;20296;-70
2022/09/30 04:22:22;;;;;;;3.25;1.50;;;;;;;15.31;99.03;99707.81;5094121;28;20052;-70
2022/09/30 04:24:53;;;;;;;2.47;1.33;;;;;;;15.20;99.34;99701.84;5096126;28;20052;-70
2022/09/30 04:27:21;;;;;;;3.65;0.98;;;;;;;15.30;98.37;99706.97;5104411;28;20071;-70
2022/09/30 04:29:48;;;;;;;1.95;0.85;;;;;;;15.25;99.45;99711.91;5101374;28;20032;-70
2022/09/30 04:32:16;;;;;;;1.25;0.50;;;;;;;15.21;98.69;99720.03;5105403;28;20712;-71
2022/09/30 04:34:44;;;;;;;0.82;0.73;;;;;;;15.24;100.00;99708.31;5100074;28;20063;-70
2022/09/30 04:37:12;;;;;;;4.35;0.90;;;;;;;15.27;99.39;99710.44;5106762;28;20055;-70
2022/09/30 04:39:40;;;;;;;1.42;1.33;;;;;;;15.33;99.22;99711.03;5098336;28;20040;-70
2022/09/30 04:42:08;;;;;;;1.75;1.08;;;;;;;15.31;99.39;99714.09;5106745;28;20163;-70
2022/09/30 04:44:36;;;;;;;3.42;1.63;;;;;;;15.28;99.62;99712.03;5100803;28;20398;-70
2022/09/30 04:47:08;;;;;;;2.53;1.00;;;;;;;15.39;99.36;99725.44;5105436;27;20040;-70
2022/09/30 04:49:35;;;;;;;1.75;1.30;;;;;;;15.47;98.22;99723.75;5104944;28;20058;-70
2022/09/30 04:52:03;;;;;;;0.70;0.70;;;;;;;15.40;98.97;99718.78;5102316;28;20048;-70
2022/09/30 04:54:31;;;;;;;1.45;1.17;;;;;;;15.40;98.25;99732.56;5104282;28;20929;-70
2022/09/30 04:56:59;;;;;;;2.38;1.00;;;;;;;15.42;99.42;99735.78;5111679;28;20398;-70
2022/09/30 04:59:27;;;;;;;1.25;0.93;;;;;;;15.33;99.73;99749.63;5103272;28;20051;-69
2022/09/30 05:01:55;;;;;;;1.40;1.30;;;;;;;15.22;100.00;99740.94;5097705;28;20048;-69
2022/09/30 05:04:23;;;;;;;1.33;1.23;;;;;;;15.18;100.00;99740.78;5098816;28;20048;-70
2022/09/30 05:06:51;;;;;;;5.55;1.67;;;;;;;15.05;100.00;99733.53;5106770;28;20039;-70
2022/09/30 05:09:19;;;;;;;2.08;1.80;;;;;;;15.17;100.00;99735.59;5108054;28;20039;-70
2022/09/30 05:11:48;;;;;;;3.47;1.80;;;;;;;15.21;100.00;99735.75;5108821;28;20394;-70
2022/09/30 05:14:16;;;;;;;2.55;1.50;;;;;;;15.39;99.37;99731.75;5110404;28;20481;-71
2022/09/30 05:16:44;;;;;;;1.88;1.35;;;;;;;15.38;99.60;99737.59;5109872;28;20493;-70
2022/09/30 05:19:12;;;;;;;2.20;1.88;;;;;;;15.47;98.66;99743.88;5109955;28;20054;-71
2022/09/30 05:21:42;;;;;;;4.20;1.73;;;;;;;15.48;98.46;99739.19;5114177;28;20058;-71
2022/09/30 05:24:10;;;;;;;3.15;1.85;;;;;;;15.47;99.35;99743.88;5111250;28;20044;-71
2022/09/30 05:26:39;;;;;;;5.13;2.08;;;;;;;15.48;99.54;99739.19;5112035;28;20052;-71
2022/09/30 05:29:08;;;;;;;3.38;1.98;;;;;;;15.46;98.96;99750.53;5098723;28;20059;-70
2022/09/30 05:31:36;;;;;;;4.13;2.22;;;;;;;15.44;100.00;99756.38;5113566;28;20814;-70
2022/09/30 05:34:04;;;;;;;4.47;2.42;;;;;;;15.45;99.58;99762.69;5112768;28;20048;-71
2022/09/30 05:36:32;;;;;;;3.90;2.28;;;;;;;15.40;99.48;99766.44;5107929;28;20047;-70
2022/09/30 05:39:00;;;;;;;3.30;2.10;;;;;;;15.59;98.25;99763.25;5107407;28;20382;-70
2022/09/30 05:41:28;;;;;;;4.72;2.60;;;;;;;15.72;96.87;99772.44;5106540;28;20045;-70
2022/09/30 05:43:59;;;;;;;5.90;2.13;;;;;;;15.73;97.56;99770.47;5105021;28;20044;-70
2022/09/30 05:46:27;;;;;;;8.35;2.35;;;;;;;15.71;98.38;99781.03;5106759;28;20402;-71
2022/09/30 05:48:56;;;;;;;5.30;2.05;;;;;;;15.58;98.59;99786.47;5116276;27;20048;-71
2022/09/30 05:51:25;;;;;;;4.60;2.47;;;;;;;15.55;99.00;99800.91;5108495;28;20044;-71
2022/09/30 05:53:53;;;;;;;3.05;2.22;;;;;;;15.54;98.82;99791.00;5112303;28;20055;-71
2022/09/30 05:56:20;;;;;;;5.78;2.33;;;;;;;15.45;99.24;99793.03;5113751;28;20059;-71
2022/09/30 05:58:49;;;;;;;4.93;1.88;;;;;;;15.55;99.71;99795.38;5106294;28;20482;-71
2022/09/30 06:01:17;;;;;;;3.95;2.28;;;;;;;15.57;99.25;99797.81;5105531;28;20047;-71
2022/09/30 06:03:46;;;;;;;3.63;1.95;;;;;;;15.51;99.86;99796.41;5109876;28;20367;-71
2022/09/30 06:06:15;;;;;;;2.00;1.77;;;;;;;15.62;98.97;99802.31;5113491;28;20050;-71
2022/09/30 06:08:43;;;;;;;2.55;1.67;;;;;;;15.68;99.43;99815.59;5111964;28;20039;-71
2022/09/30 06:11:14;;;;;;;2.65;1.33;;;;;;;15.89;97.95;99825.06;5113369;28;20067;-71
2022/09/30 06:13:43;;;;;;;4.03;1.35;;;;;;;15.80;98.25;99831.41;5112089;28;20484;-71
2022/09/30 06:16:14;;;;;;;4.25;1.20;;;;;;;15.72;99.43;99826.78;5113189;28;20051;-71
2022/09/30 06:18:43;;;;;;;1.30;1.20;;;;;;;15.66;100.00;99825.34;5100143;28;20479;-71
2022/09/30 06:21:14;;;;;;;1.90;1.30;;;;;;;15.87;98.96;99832.88;5111118;28;20493;-71
2022/09/30 06:23:42;;;;;;;2.65;1.45;;;;;;;16.01;98.54;99847.25;5113322;28;20052;-71
2022/09/30 06:26:13;;;;;;;5.07;2.20;;;;;;;16.24;96.60;99844.16;5113083;28;20044;-71
2022/09/30 06:28:42;;;;;;;2.28;1.67;;;;;;;16.49;96.41;99853.38;5112993;28;20382;-71
2022/09/30 06:31:10;;;;;;;3.03;1.60;;;;;;;16.82;94.44;99860.06;5111736;28;20048;-71
2022/09/30 06:33:38;;;;;;;2.65;1.40;;;;;;;17.11;92.29;99858.31;5112987;28;20051;-71
2022/09/30 06:36:06;;;;;;;3.22;1.45;;;;;;;17.18;91.32;99863.28;5111616;28;20055;-71
2022/09/30 06:38:38;;;;;;;4.15;1.38;;;;;;;17.28;91.86;99862.88;5112975;28;20047;-71
2022/09/30 06:41:07;;;;;;;1.80;1.35;;;;;;;17.44;91.47;99876.00;5112945;28;20109;-71
2022/09/30 06:43:35;;;;;;;1.90;1.65;;;;;;;17.59;91.02;99875.34;5113016;28;20062;-72
2022/09/30 06:46:17;;;;;;;3.00;1.40;;;;;;;17.77;88.47;99891.72;5112887;28;20048;-72
2022/09/30 06:48:57;;;;;;;2.83;1.58;;;;;;;17.69;89.49;99896.19;5112870;28;20036;-71
2022/09/30 06:51:38;;;;;;;3.03;1.75;;;;;;;17.86;89.59;99894.34;5112680;28;20043;-71
2022/09/30 06:54:07;;;;;;;3.40;1.48;;;;;;;18.37;86.78;99913.38;5110802;28;20044;-71
2022/09/30 06:56:35;;;;;;;2.05;1.75;;;;;;;18.92;84.58;99912.94;5112459;28;20051;-71
2022/09/30 06:59:03;;;;;;;2.30;1.60;;;;;;;19.27;82.05;99907.97;5110803;28;20047;-71
2022/09/30 07:01:31;;;;;;;1.83;1.40;;;;;;;19.23;80.04;99920.91;5112570;28;20043;-71
2022/09/30 07:04:02;;;;;;;2.05;1.20;;;;;;;19.26;80.27;99921.00;5112658;28;20490;-71
2022/09/30 07:06:30;;;;;;;1.58;1.25;;;;;;;18.80;81.54;99921.31;5112609;28;20039;-72
2022/09/30 07:08:58;;;;;;;2.40;0.90;;;;;;;18.74;81.56;99923.53;5106947;28;20050;-71
2022/09/30 07:11:26;;;;;;;3.60;1.50;;;;;;;18.77;81.93;99930.34;5112556;28;20039;-71
2022/09/30 07:13:54;;;;;;;0.90;0.90;;;;;;;18.59;82.34;99930.63;5110996;28;20052;-71
2022/09/30 07:16:24;;;;;;;3.28;1.55;;;;;;;18.56;82.27;99928.53;5112454;28;20045;-71
2022/09/30 07:18:53;;;;;;;3.78;1.42;;;;;;;18.71;79.90;99937.31;5111119;28;20052;-72
2022/09/30 07:21:21;;;;;;;2.75;1.45;;;;;;;19.04;79.55;99937.09;5112048;28;20043;-71
2022/09/30 07:23:49;;;;;;;2.03;1.60;;;;;;;18.82;81.54;99921.75;5111100;28;20036;-72
2022/09/30 07:26:22;;;;;;;4.72;1.63;;;;;;;18.93;78.49;99927.63;5111936;28;20046;-71
2022/09/30 07:28:51;;;;;;;1.80;1.23;;;;;;;19.03;77.36;99938.25;5110525;28;20051;-71
2022/09/30 07:31:24;;;;;;;1.85;1.50;;;;;;;19.28;76.57;99938.13;5112036;28;20051;-71
2022/09/30 07:34:05;;;;;;;3.28;1.48;;;;;;;19.42;77.32;99947.97;5111985;28;20062;-71
2022/09/30 07:36:36;;;;;;;2.05;1.38;;;;;;;19.52;75.65;99939.13;5112004;28;20035;-71
2022/09/30 07:39:07;;;;;;;2.67;1.23;;;;;;;19.53;74.56;99945.47;5112129;28;20035;-71
2022/09/30 07:41:38;;;;;;;1.75;1.65;;;;;;;19.27;75.88;99941.25;5110683;28;20050;-71
2022/09/30 07:44:09;;;;;;;2.72;1.10;;;;;;;19.53;72.89;99951.84;5112179;28;20393;-71
2022/09/30 07:46:39;;;;;;;5.40;2.20;;;;;;;19.45;75.16;99952.78;5112010;28;20066;-71
2022/09/30 07:49:13;;;;;;;3.78;1.40;;;;;;;19.76;75.36;99955.97;5112048;28;20465;-71
2022/09/30 07:51:44;;;;;;;4.53;1.80;;;;;;;19.88;74.77;99953.91;5111958;28;20500;-71
2022/09/30 07:54:15;;;;;;;3.25;1.80;;;;;;;20.17;72.61;99959.38;5111786;28;20520;-71
2022/09/30 07:56:44;;;;;;;3.42;1.77;;;;;;;20.01;73.88;99962.16;5110538;28;20048;-72
2022/09/30 07:59:36;;;;;;;2.22;1.52;;;;;;;19.84;72.98;99963.31;5112037;28;20040;-71
2022/09/30 08:02:09;;;;;;;2.33;1.58;;;;;;;19.94;73.80;99957.22;5096123;28;20397;-71
2022/09/30 08:04:37;;;;;;;1.98;0.93;;;;;;;19.73;73.35;99963.03;5112066;28;20047;-71
2022/09/30 08:07:12;;;;;;;2.42;0.68;;;;;;;19.88;70.55;99970.56;5111643;28;20035;-71
2022/09/30 08:09:40;;;;;;;1.00;0.88;;;;;;;19.77;71.27;99988.09;5113282;28;20055;-71
2022/09/30 08:12:08;;;;;;;1.73;0.93;;;;;;;19.71;72.20;99998.69;5114567;28;20067;-71
2022/09/30 08:14:36;;;;;;;1.23;1.13;;;;;;;19.37;72.40;99995.41;5115456;28;20044;-71
2022/09/30 08:17:05;;;;;;;4.78;1.80;;;;;;;19.44;73.82;99996.41;5102135;28;20036;-71
2022/09/30 08:19:33;;;;;;;2.00;1.15;;;;;;;19.72;73.81;100003.88;5114065;28;20044;-71
2022/09/30 08:22:01;;;;;;;4.28;1.30;;;;;;;19.62;74.11;100007.19;5103386;28;20406;-71
2022/09/30 08:24:34;;;;;;;1.23;1.10;;;;;;;19.72;72.73;100012.22;5113284;28;20040;-71
2022/09/30 08:27:02;;;;;;;0.65;0.60;;;;;;;19.64;72.11;100004.84;5115374;28;20528;-71
2022/09/30 08:29:30;;;;;;;3.90;0.85;;;;;;;19.63;71.55;100016.28;5115240;28;20497;-71
2022/09/30 08:32:18;;;;;;;0.63;0.40;;;;;;;19.95;70.06;100013.56;5102575;28;20047;-71
2022/09/30 08:34:45;;;;;;;0.52;0.50;;;;;;;19.83;68.43;100023.59;5112757;28;20043;-71
2022/09/30 08:37:13;;;;;;;0.82;0.47;;;;;;;19.82;69.45;100021.97;5114081;28;20043;-71
2022/09/30 08:39:42;;;;;;;1.77;0.40;;;;;;;19.45;70.81;100024.94;5114991;28;20509;-71
2022/09/30 08:42:21;;;;;;;0.50;0.43;;;;;;;19.38;69.64;100030.28;5104976;28;20043;-71
2022/09/30 08:45:35;;;;;;;0.85;0.55;;;;;;;19.17;70.26;100031.31;5114386;28;20496;-69
2022/09/30 08:48:16;;;;;;;1.15;0.38;;;;;;;19.15;69.88;100044.72;5114772;28;20865;-70
2022/09/30 08:50:55;;;;;;;0.80;0.60;;;;;;;19.27;71.33;100041.91;5113456;28;20058;-71
2022/09/30 08:53:32;;;;;;;1.10;0.80;;;;;;;19.40;69.88;100055.72;5114895;28;20397;-71
2022/09/30 08:56:02;;;;;;;0.80;0.60;;;;;;;19.73;69.66;100068.50;5114752;28;20067;-71
2022/09/30 08:58:32;;;;;;;0.32;0.32;;;;;;;19.65;69.33;100066.72;5114708;28;20397;-70
2022/09/30 09:01:12;;;;;;;1.15;0.40;;;;;;;19.65;68.21;100073.06;5114778;28;20054;-71
2022/09/30 09:03:40;;;;;;;0.30;0.30;;;;;;;19.22;68.82;100075.44;5113479;28;20413;-70
2022/09/30 09:06:27;;;;;;;0.40;0.40;;;;;;;19.19;68.63;100074.19;5114695;28;20047;-70
2022/09/30 09:09:01;;;;;;;0.77;0.77;;;;;;;19.25;69.20;100085.03;5114357;28;20051;-71
2022/09/30 09:11:44;;;;;;;2.53;0.52;;;;;;;19.10;70.21;100086.56;5114640;28;20070;-71
2022/09/30 09:14:28;;;;;;;0.60;0.60;;;;;;;19.15;72.06;100089.09;5114092;28;20047;-71
2022/09/30 09:16:59;;;;;;;3.80;0.50;;;;;;;19.16;72.97;100094.28;5113026;28;20052;-71
2022/09/30 09:19:37;;;;;;;0.50;0.50;;;;;;;19.21;72.49;100087.66;5114319;28;20040;-70
2022/09/30 09:22:09;;;;;;;2.35;0.40;;;;;;;19.16;73.15;100090.72;5114208;28;20039;-71
2022/09/30 09:24:45;;;;;;;1.25;0.43;;;;;;;19.14;71.86;100104.09;5114205;28;20036;-71
2022/09/30 09:27:25;;;;;;;0.70;0.60;;;;;;;19.25;73.41;100104.44;5114045;28;20145;-71
2022/09/30 09:30:07;;;;;;;1.40;0.30;;;;;;;19.24;73.14;100106.41;5114081;28;20040;-71
2022/09/30 09:32:36;;;;;;;1.50;0.82;;;;;;;19.33;75.42;100109.84;5114184;28;20043;-72
2022/09/30 09:35:31;;;;;;;0.98;0.40;;;;;;;19.21;74.82;100112.63;5112745;28;20047;-71
2022/09/30 09:41:02;;;;;;;1.25;0.60;;;;;;;19.13;76.07;100127.47;5113883;28;20052;-71
2022/09/30 09:43:57;;;;;;;0.73;0.73;;;;;;;18.91;76.71;100135.06;5113810;28;20474;-71
2022/09/30 09:46:49;;;;;;;0.65;0.55;;;;;;;18.73;77.67;100129.75;5113787;28;20378;-70
2022/09/30 09:49:22;;;;;;;0.90;0.82;;;;;;;18.85;79.26;100136.47;5113870;28;20047;-71
2022/09/30 09:52:12;;;;;;;1.00;0.82;;;;;;;18.71;80.04;100142.38;5112428;28;20406;-71
2022/09/30 09:54:44;;;;;;;1.83;0.70;;;;;;;18.78;79.75;100151.72;5113502;28;20044;-70
2022/09/30 09:57:23;;;;;;;1.58;0.80;;;;;;;18.93;80.83;100152.19;5099854;28;20040;-71
2022/09/30 10:02:59;;;;;;;2.43;0.90;;;;;;;18.75;81.98;100157.13;5113479;28;20047;-71
2022/09/30 10:05:31;;;;;;;1.58;0.80;;;;;;;18.87;81.38;100167.44;5112176;28;20040;-71
2022/09/30 10:08:20;;;;;;;2.92;1.10;;;;;;;18.94;82.36;100165.72;5113386;28;20470;-71
2022/09/30 10:11:00;;;;;;;2.35;1.27;;;;;;;19.09;81.78;100168.13;5113259;28;20052;-71
2022/09/30 10:13:37;;;;;;;2.35;0.80;;;;;;;19.15;80.25;100158.41;5113385;28;20051;-71
2022/09/30 10:16:05;;;;;;;1.10;0.70;;;;;;;19.08;79.65;100156.25;5113085;28;20050;-71
2022/09/30 10:18:36;;;;;;;1.35;0.80;;;;;;;19.37;79.13;100154.34;5111766;28;20059;-71
2022/09/30 10:21:08;;;;;;;0.80;0.70;;;;;;;19.22;79.59;100157.84;5113051;28;20043;-70
2022/09/30 10:23:41;;;;;;;0.50;0.50;;;;;;;18.97;79.20;100155.06;5111788;28;20489;-71
2022/09/30 10:26:12;;;;;;;5.17;1.13;;;;;;;19.28;80.39;100153.66;5112965;28;20489;-71
2022/09/30 10:28:50;;;;;;;0.65;0.65;;;;;;;19.27;77.76;100158.41;5111801;28;20044;-70
2022/09/30 10:31:34;;;;;;;2.30;1.10;;;;;;;19.68;81.58;100154.81;5112851;28;20455;-70
2022/09/30 10:34:17;;;;;;;1.25;0.93;;;;;;;19.51;79.50;100169.78;5112617;28;20050;-70
2022/09/30 10:36:46;;;;;;;2.80;1.08;;;;;;;19.52;79.12;100177.78;5112931;28;20055;-70
2022/09/30 10:39:26;;;;;;;2.05;0.90;;;;;;;19.08;80.92;100183.97;5112639;27;20051;-70
2022/09/30 10:42:22;;;;;;;0.60;0.60;;;;;;;19.36;82.30;100183.25;5107854;28;20040;-70
2022/09/30 10:45:03;;;;;;;0.55;0.55;;;;;;;19.03;81.35;100185.03;5098285;28;20386;-70
2022/09/30 10:47:32;;;;;;;0.63;0.50;;;;;;;19.41;79.91;100183.00;5112756;28;20046;-70
2022/09/30 10:50:07;;;;;;;4.60;0.68;;;;;;;19.55;78.41;100190.94;5097043;28;20035;-70
2022/09/30 10:52:46;;;;;;;2.58;1.00;;;;;;;19.53;78.00;100189.66;5112700;28;20052;-70
2022/09/30 10:55:23;;;;;;;1.17;0.65;;;;;;;19.46;79.15;100193.06;5096756;28;20047;-70
2022/09/30 10:57:52;;;;;;;1.10;1.00;;;;;;;19.55;79.42;100195.69;5112575;28;20055;-71
2022/09/30 11:00:24;;;;;;;1.00;0.90;;;;;;;19.53;79.71;100187.72;5110642;28;20047;-71
2022/09/30 11:03:15;;;;;;;1.50;0.85;;;;;;;19.59;79.68;100197.41;5112745;28;20078;-70
2022/09/30 11:05:47;;;;;;;4.68;1.08;;;;;;;19.30;82.16;100190.16;5090512;28;20044;-71
2022/09/30 11:08:29;;;;;;;1.98;1.02;;;;;;;19.34;82.10;100191.91;5106718;28;20058;-70
2022/09/30 11:11:08;;;;;;;0.82;0.68;;;;;;;19.31;79.25;100192.59;5111287;28;20055;-70
2022/09/30 11:13:49;;;;;;;1.70;0.77;;;;;;;19.34;81.95;100191.91;5112271;28;20039;-70
2022/09/30 11:16:23;;;;;;;6.55;4.20;;;;;;;19.03;83.89;100198.88;5112034;28;20060;-71
2022/09/30 11:19:06;;;;;;;0.80;0.80;;;;;;;18.96;82.11;100201.38;5112194;28;20043;-71
2022/09/30 11:21:40;;;;;;;1.30;0.90;;;;;;;19.27;83.31;100185.34;5090656;28;20514;-70
2022/09/30 11:24:19;;;;;;;2.53;1.25;;;;;;;19.01;80.99;100195.59;5106467;28;20051;-70
2022/09/30 11:27:09;;;;;;;1.05;0.80;;;;;;;19.12;84.10;100193.22;5112025;28;20066;-70
2022/09/30 11:30:01;;;;;;;1.40;1.10;;;;;;;19.23;83.02;100199.09;5112167;28;20043;-70
2022/09/30 11:33:03;;;;;;;1.80;1.35;;;;;;;19.06;84.00;100198.19;5112276;28;20478;-71
2022/09/30 11:35:49;;;;;;;1.48;0.93;;;;;;;19.14;83.90;100204.78;5101878;28;20374;-71
2022/09/30 11:38:38;;;;;;;1.13;0.98;;;;;;;18.86;84.03;100204.63;5111709;28;20043;-71
2022/09/30 11:41:34;;;;;;;1.67;0.82;;;;;;;18.87;85.01;100206.25;5112213;28;20051;-70
2022/09/30 11:44:08;;;;;;;2.08;0.93;;;;;;;18.99;86.57;100209.03;5104210;28;20048;-69
2022/09/30 11:47:13;;;;;;;3.22;1.17;;;;;;;19.07;86.48;100212.88;5116298;28;20040;-70
2022/09/30 11:50:06;;;;;;;1.23;0.95;;;;;;;19.05;86.51;100207.66;5116177;28;20399;-70
2022/09/30 11:53:08;;;;;;;1.77;1.17;;;;;;;19.01;89.09;100206.69;5116293;28;20050;-70
2022/09/30 11:56:00;;;;;;;1.35;1.00;;;;;;;18.99;87.48;100203.47;5102742;28;20047;-69
2022/09/30 11:58:53;;;;;;;0.85;0.85;;;;;;;19.15;84.52;100202.78;5115799;28;20047;-70
2022/09/30 12:01:29;;;;;;;2.58;1.00;;;;;;;19.38;86.77;100196.75;5115998;28;20047;-70
2022/09/30 12:03:57;;;;;;;1.27;1.17;;;;;;;19.37;84.70;100212.59;5100749;28;20417;-69
2022/09/30 12:06:41;;;;;;;1.27;1.17;;;;;;;19.34;83.55;100203.00;5112895;28;20054;-70
2022/09/30 12:09:22;;;;;;;2.88;1.00;;;;;;;19.16;86.18;100196.09;5112029;28;20066;-69
2022/09/30 12:11:59;;;;;;;1.80;1.08;;;;;;;18.86;87.43;100199.09;5115420;28;20047;-69
2022/09/30 12:14:42;;;;;;;2.25;1.50;;;;;;;18.73;88.46;100206.59;5114514;27;20390;-70